Time;durP1;ratioP1;P1;durP2;ratioP2;P2;SDS_P1;SDS_P2;PMS_P1;PMS_P2;Temp;Humidity;BMP_temperature;BMP_pressure;BME280_temperature;BME280_humidity;BME280_pressure;Samples;Min_cycle;Max_cycle;Signal;HPM_P1;HPM_P2
2022/02/03 07:52:30;;;;;;;41.30;19.30;;;;;;;0.82;56.77;98887.56;5032813;28;20931;-73
2022/02/03 07:54:56;;;;;;;38.57;18.00;;;;;;;1.63;54.87;98897.72;5026841;28;20049;-75
2022/02/03 07:57:22;;;;;;;50.23;20.13;;;;;;;2.14;52.46;98908.44;5058986;28;20046;-77
2022/02/03 07:59:48;;;;;;;47.67;22.43;;;;;;;2.47;50.82;98915.38;5041719;28;20041;-74
2022/02/03 08:02:14;;;;;;;50.00;22.03;;;;;;;2.40;52.06;98901.13;5026797;28;20050;-74
2022/02/03 08:04:45;;;;;;;58.70;23.53;;;;;;;2.77;50.96;98925.97;5041867;28;20072;-76
2022/02/03 08:07:14;;;;;;;56.40;24.27;;;;;;;2.83;49.77;98917.63;5057353;28;20041;-74
2022/02/03 08:09:50;;;;;;;72.03;28.10;;;;;;;2.86;49.76;98919.97;5041935;28;20477;-74
2022/02/03 08:12:17;;;;;;;60.97;26.60;;;;;;;3.01;49.75;98918.69;5026148;28;20046;-75
2022/02/03 08:14:48;;;;;;;58.70;25.83;;;;;;;3.32;50.68;98917.78;5026696;28;20517;-77
2022/02/03 08:17:20;;;;;;;55.53;23.88;;;;;;;3.49;49.83;98922.41;5025885;28;20042;-80
2022/02/03 08:19:56;;;;;;;56.20;23.63;;;;;;;3.55;47.77;98931.56;5026101;28;20568;-78
2022/02/03 08:22:31;;;;;;;57.83;24.13;;;;;;;3.76;48.34;98942.84;5009987;28;20046;-77
2022/02/03 08:25:21;;;;;;;62.53;24.63;;;;;;;3.77;47.45;98934.81;5025297;28;20418;-76
2022/02/03 08:30:33;;;;;;;52.30;21.70;;;;;;;4.39;46.99;98929.31;5008322;28;20556;-70
2022/02/03 08:33:01;;;;;;;46.03;20.13;;;;;;;4.55;46.16;98903.31;5025122;28;20525;-78
2022/02/03 08:35:36;;;;;;;56.60;24.00;;;;;;;4.88;44.79;98942.34;5024908;28;20087;-76
2022/02/03 08:38:16;;;;;;;47.23;20.70;;;;;;;4.92;44.69;98939.28;5009129;28;20129;-77
2022/02/03 08:43:09;;;;;;;54.53;22.97;;;;;;;4.74;44.47;98942.75;5025796;28;20134;-79
2022/02/03 08:45:34;;;;;;;60.93;22.90;;;;;;;4.23;42.98;98948.25;5024689;28;20049;-78
2022/02/03 08:48:00;;;;;;;54.97;23.03;;;;;;;3.53;43.01;98950.06;5004241;28;20151;-78
2022/02/03 08:50:27;;;;;;;60.13;24.37;;;;;;;2.83;43.90;98915.81;5006722;28;20197;-79
2022/02/03 08:53:14;;;;;;;62.90;24.57;;;;;;;2.65;44.44;98956.66;4972460;28;20518;-78
2022/02/03 08:58:46;;;;;;;55.00;23.10;;;;;;;1.97;45.60;98908.97;5007858;28;20052;-76
2022/02/03 09:52:39;;;;;;;80.73;27.83;;;;;;;2.75;45.66;98922.66;4973575;28;20058;-72
2022/02/03 09:55:17;;;;;;;69.00;27.03;;;;;;;2.80;45.11;98913.44;4988328;28;20427;-79
2022/02/03 09:58:12;;;;;;;74.63;26.43;;;;;;;2.54;45.54;98901.66;5007971;28;20050;-75
2022/02/03 10:01:03;;;;;;;81.60;27.67;;;;;;;2.48;44.51;98928.34;4988730;28;20094;-74
2022/02/03 10:04:02;;;;;;;64.20;24.33;;;;;;;2.44;45.68;98923.50;4989479;28;20074;-77
2022/02/03 10:06:21;;;;;;;66.73;25.63;;;;;;;2.49;46.42;98911.66;4985808;28;20839;-75
2022/02/03 10:08:49;;;;;;;77.73;26.27;;;;;;;2.63;48.13;98914.00;4987157;28;20054;-69
2022/02/03 10:11:15;;;;;;;69.90;27.80;;;;;;;2.40;45.54;98925.53;4986866;28;20050;-75
2022/02/03 10:13:51;;;;;;;77.33;29.50;;;;;;;2.61;45.78;98918.56;4988119;28;20061;-81
2022/02/03 10:16:20;;;;;;;74.40;27.37;;;;;;;2.63;45.06;98921.03;4987132;28;20077;-76
2022/02/03 10:18:48;;;;;;;75.30;28.87;;;;;;;2.46;46.50;98901.44;4987652;28;20049;-71
2022/02/03 10:21:15;;;;;;;79.07;28.67;;;;;;;2.80;48.06;98902.09;4971407;28;20463;-66
2022/02/03 10:23:55;;;;;;;82.60;28.80;;;;;;;2.99;44.75;98921.44;4987433;28;20054;-75
2022/02/03 10:26:21;;;;;;;102.27;32.27;;;;;;;2.66;44.77;98908.50;4970964;28;20631;-71
2022/02/03 10:28:51;;;;;;;83.07;29.13;;;;;;;2.81;44.31;98898.53;4971243;28;20042;-76
2022/02/03 10:31:23;;;;;;;81.82;26.58;;;;;;;3.17;46.45;98925.16;4986772;28;20062;-75
2022/02/03 10:33:53;;;;;;;80.23;27.63;;;;;;;3.16;46.40;98933.97;4987088;28;20046;-77
2022/02/03 10:37:27;;;;;;;87.53;34.10;;;;;;;3.53;44.41;98947.44;4971012;28;20039;-75
2022/02/03 10:55:22;;;;;;;63.53;24.47;;;;;;;5.40;44.37;98931.31;4987584;28;20065;-80
2022/02/03 11:10:49;;;;;;;62.00;22.40;;;;;;;6.12;43.43;98889.31;4987590;28;20069;-86
2022/02/03 11:13:16;;;;;;;57.20;20.93;;;;;;;6.85;43.55;98889.84;4940718;28;20065;-79
2022/02/03 11:15:42;;;;;;;46.80;19.80;;;;;;;7.55;44.04;98895.94;4987954;28;20104;-80
2022/02/03 11:18:08;;;;;;;47.38;19.40;;;;;;;8.04;41.24;98901.28;4987324;28;20101;-81
2022/02/03 11:20:41;;;;;;;46.28;18.75;;;;;;;8.80;37.42;98899.31;4986158;28;20049;-82
2022/02/03 11:23:18;;;;;;;35.80;15.13;;;;;;;9.36;39.69;98898.47;4987918;28;20038;-77
2022/02/03 11:29:04;;;;;;;41.13;15.93;;;;;;;9.78;39.50;98885.75;4988611;28;20049;-81
2022/02/03 11:43:22;;;;;;;108.30;32.50;;;;;;;8.19;40.40;98880.34;4970355;28;20498;-77
2022/02/03 11:52:15;;;;;;;134.57;41.37;;;;;;;7.60;39.49;98885.72;4973861;28;20124;-80
2022/02/03 12:19:30;;;;;;;127.70;39.93;;;;;;;5.96;43.48;98870.66;5006015;28;20213;-83
2022/02/03 12:22:26;;;;;;;103.97;34.77;;;;;;;5.98;41.37;98887.97;4975792;28;20460;-78
2022/02/03 12:25:19;;;;;;;96.57;34.17;;;;;;;5.55;42.38;98860.59;4974172;28;20042;-77
2022/02/03 12:28:05;;;;;;;79.07;29.80;;;;;;;4.76;42.07;98846.13;5006614;28;20046;-74
2022/02/03 12:30:52;;;;;;;89.80;28.90;;;;;;;4.44;43.02;98877.16;5006047;28;20038;-77
2022/02/03 12:38:50;;;;;;;72.67;26.63;;;;;;;4.12;42.90;98889.72;5009150;28;20188;-77
2022/02/03 12:41:36;;;;;;;89.67;29.67;;;;;;;3.87;44.00;98877.94;5008814;28;20046;-77
2022/02/03 12:44:11;;;;;;;144.80;37.17;;;;;;;4.40;45.59;98881.84;4978369;28;20050;-73
2022/02/03 12:46:37;;;;;;;89.13;32.40;;;;;;;4.15;43.50;98885.00;5010667;28;20050;-76
2022/02/03 12:49:03;;;;;;;75.00;28.60;;;;;;;3.87;43.78;98851.66;5010684;28;20038;-77
2022/02/03 12:51:29;;;;;;;104.73;33.17;;;;;;;4.03;44.71;98885.28;5009184;28;20057;-71
2022/02/03 12:53:56;;;;;;;114.20;33.70;;;;;;;4.17;45.03;98890.97;4991984;28;20049;-74
2022/02/03 12:56:23;;;;;;;107.40;33.00;;;;;;;4.35;44.07;98894.56;5008207;28;20046;-78
2022/02/03 12:59:00;;;;;;;115.93;33.43;;;;;;;4.68;42.95;98888.09;5008612;28;20042;-79
2022/02/03 13:01:33;;;;;;;102.93;32.70;;;;;;;4.03;43.43;98840.63;4975544;28;20045;-73
2022/02/03 13:04:02;;;;;;;77.83;28.53;;;;;;;3.80;42.66;98896.97;5010376;28;20520;-70
2022/02/03 13:06:29;;;;;;;112.77;31.93;;;;;;;3.46;44.36;98899.03;4991646;28;20061;-80
2022/02/03 13:09:00;;;;;;;92.90;29.00;;;;;;;3.27;44.50;98897.19;4995261;28;20045;-79
2022/02/03 13:11:38;;;;;;;90.47;29.95;;;;;;;2.94;45.06;98881.66;5010451;28;20046;-78
2022/02/03 13:19:55;;;;;;;118.57;35.03;;;;;;;3.04;46.32;98884.34;4994611;28;20052;-80
2022/02/03 13:28:22;;;;;;;77.80;27.87;;;;;;;3.05;44.99;98894.69;5010570;28;20124;-76
2022/02/03 13:30:45;;;;;;;80.80;27.87;;;;;;;3.03;45.52;98893.16;5013950;28;20085;-75
2022/02/03 13:33:13;;;;;;;87.43;29.30;;;;;;;2.75;46.09;98891.19;5011414;28;20050;-75
2022/02/03 13:35:52;;;;;;;101.57;31.80;;;;;;;2.45;46.82;98870.97;5011432;28;20038;-73
2022/02/03 13:38:50;;;;;;;89.07;30.10;;;;;;;2.91;46.54;98897.66;5011008;28;20514;-74
2022/02/03 13:41:23;;;;;;;84.07;29.80;;;;;;;2.67;46.27;98897.06;4982517;28;20145;-80
2022/02/03 13:43:49;;;;;;;79.17;28.30;;;;;;;2.07;47.15;98877.66;4994908;28;20117;-76
2022/02/03 13:46:31;;;;;;;84.57;28.60;;;;;;;2.60;46.59;98882.78;5010682;28;20136;-76
2022/02/03 13:48:57;;;;;;;90.77;29.50;;;;;;;2.27;47.48;98897.81;4978523;28;20127;-78
2022/02/03 13:51:28;;;;;;;78.77;30.13;;;;;;;2.38;46.80;98882.91;4987596;28;20058;-82
2022/02/03 13:54:13;;;;;;;;;;;;;;;2.67;47.53;98893.59;4981441;28;20109;-77
2022/02/03 14:29:23;;;;;;;107.57;33.83;;;;;;;2.28;48.69;98896.84;4987433;28;20050;-75
2022/02/03 14:31:59;;;;;;;101.63;34.03;;;;;;;2.28;49.00;98891.63;4987204;28;20054;-71
2022/02/03 14:34:30;;;;;;;86.43;29.50;;;;;;;2.13;48.26;98904.19;4987013;28;20137;-73
2022/02/03 14:37:09;;;;;;;102.20;32.77;;;;;;;2.26;48.54;98904.84;4956467;28;20046;-73
2022/02/03 14:39:48;;;;;;;103.40;31.83;;;;;;;2.12;49.02;98892.06;4974277;28;20954;-74
2022/02/03 14:42:14;;;;;;;102.70;34.17;;;;;;;2.11;48.74;98868.59;4975005;28;20054;-72
2022/02/03 14:44:43;;;;;;;103.07;32.83;;;;;;;2.34;48.74;98902.44;4974441;28;20042;-72
2022/02/03 14:47:12;;;;;;;88.90;31.90;;;;;;;2.20;47.88;98912.38;4974574;28;20072;-71
2022/02/03 14:49:43;;;;;;;109.53;33.70;;;;;;;2.27;48.79;98905.69;4957065;28;20538;-72
2022/02/03 14:52:12;;;;;;;84.97;30.33;;;;;;;2.19;48.42;98900.22;4957007;28;20507;-71
2022/02/03 15:00:09;;;;;;;84.03;28.73;;;;;;;2.01;48.61;98884.22;4990480;28;20140;-70
2022/02/03 15:02:36;;;;;;;79.63;30.47;;;;;;;1.94;49.11;98877.78;4956536;28;20156;-68
2022/02/03 15:05:10;;;;;;;103.83;31.97;;;;;;;2.40;49.44;98911.59;4972910;28;20125;-72
2022/02/03 15:07:41;;;;;;;96.30;30.77;;;;;;;2.28;50.18;98902.09;4972698;28;20054;-70
2022/02/03 15:15:01;;;;;;;93.47;30.57;;;;;;;2.47;48.58;98913.59;4956624;28;20046;-73
2022/02/03 15:17:31;;;;;;;97.87;32.33;;;;;;;2.33;48.29;98910.41;4973599;28;20046;-74
2022/02/03 15:19:58;;;;;;;78.83;28.20;;;;;;;2.05;48.49;98918.81;4989142;28;20089;-76
2022/02/03 15:22:25;;;;;;;99.03;33.53;;;;;;;2.22;48.36;98908.69;4956475;28;20038;-72
2022/02/03 15:24:51;;;;;;;87.90;31.93;;;;;;;2.02;48.53;98922.53;4987147;28;20089;-75
2022/02/03 15:27:17;;;;;;;106.37;31.80;;;;;;;2.18;49.52;98915.13;4970402;28;20435;-74
2022/02/03 15:29:49;;;;;;;96.10;30.13;;;;;;;2.08;48.46;98924.66;4970422;28;20054;-73
2022/02/03 15:32:16;;;;;;;109.97;34.77;;;;;;;2.20;49.00;98913.19;4970789;28;20061;-76
2022/02/03 15:34:42;;;;;;;107.83;32.53;;;;;;;1.85;48.68;98909.09;4986517;28;20045;-74
2022/02/03 15:37:11;;;;;;;96.23;31.73;;;;;;;2.01;48.82;98918.25;4954312;28;20069;-75
2022/02/03 15:39:45;;;;;;;106.10;34.57;;;;;;;1.86;48.17;98922.06;4987482;28;20049;-73
2022/02/03 15:42:11;;;;;;;111.37;36.00;;;;;;;1.94;48.92;98917.06;4957559;28;20046;-74
2022/02/03 15:44:41;;;;;;;95.73;33.43;;;;;;;1.80;48.38;98927.78;4959093;28;20052;-73
2022/02/03 15:47:17;;;;;;;101.97;33.83;;;;;;;1.65;48.57;98908.91;4976211;28;20038;-73
2022/02/03 16:01:15;;;;;;;107.87;34.97;;;;;;;2.26;47.77;98927.59;4992164;28;20188;-75
2022/02/03 16:19:22;;;;;;;119.10;37.70;;;;;;;2.77;47.41;98932.03;4997947;28;20075;-76
2022/02/03 16:21:57;;;;;;;119.27;37.53;;;;;;;2.70;46.89;98930.06;4964937;28;20180;-78
2022/02/03 16:51:13;;;;;;;152.03;40.23;;;;;;;2.58;47.04;98894.38;4983293;28;20054;-74
2022/02/03 16:53:41;;;;;;;131.87;38.70;;;;;;;2.32;46.59;98924.50;4995325;28;20156;-72
2022/02/03 16:56:10;;;;;;;142.93;40.60;;;;;;;2.32;47.80;98924.50;4962161;28;20507;-73
2022/02/03 16:58:37;;;;;;;141.37;40.90;;;;;;;2.33;47.90;98921.75;4995115;28;20583;-75
2022/02/03 17:01:03;;;;;;;134.13;37.30;;;;;;;2.16;47.64;98911.78;4967030;28;20042;-74
2022/02/03 17:03:29;;;;;;;128.23;37.13;;;;;;;1.67;47.69;98887.84;4999190;28;20038;-77
2022/02/03 17:05:55;;;;;;;110.80;36.77;;;;;;;1.70;47.81;98887.59;4969282;28;20443;-75
2022/02/03 17:08:21;;;;;;;127.10;35.90;;;;;;;1.80;48.89;98919.94;4983091;28;20180;-75
2022/02/03 17:10:48;;;;;;;121.83;38.63;;;;;;;2.13;48.48;98930.38;4958008;28;20077;-73
2022/02/03 17:13:14;;;;;;;92.27;31.93;;;;;;;1.89;47.47;98932.34;4977801;28;20046;-76
2022/02/03 17:15:42;;;;;;;110.07;34.20;;;;;;;1.71;47.95;98912.81;4962609;28;20046;-75
2022/02/03 17:18:08;;;;;;;125.67;36.33;;;;;;;1.95;47.64;98915.28;4979247;28;20483;-78
2022/02/03 17:20:37;;;;;;;112.13;35.70;;;;;;;1.92;48.34;98916.38;4962170;28;20048;-76
2022/02/03 17:23:06;;;;;;;115.47;36.80;;;;;;;1.94;47.70;98927.53;4976764;28;20065;-76
2022/02/03 17:30:50;;;;;;;96.13;35.87;;;;;;;1.88;47.17;98924.59;4976459;28;20049;-76
2022/02/03 18:45:52;;;;;;;79.88;28.33;;;;;;;0.76;50.21;98912.38;4995556;28;20060;-74
2022/02/03 18:46:01;;;;;;;85.10;29.57;;;;;;;0.94;49.75;98904.94;4979592;28;20042;-75
2022/02/03 18:51:12;;;;;;;88.97;30.67;;;;;;;1.19;49.36;98899.50;4979052;28;20053;-78
2022/02/03 20:11:28;;;;;;;87.13;31.13;;;;;;;2.18;46.66;98924.75;4969509;28;20054;-78
2022/02/03 20:13:54;;;;;;;102.60;36.27;;;;;;;2.04;46.25;98894.44;4941981;28;20054;-77
2022/02/03 20:16:22;;;;;;;108.03;38.40;;;;;;;2.11;46.55;98915.75;4958287;28;20236;-76
2022/02/03 20:18:49;;;;;;;107.83;35.53;;;;;;;2.19;46.40;98921.19;4975514;28;20049;-75
2022/02/03 20:21:15;;;;;;;112.03;39.50;;;;;;;2.37;46.69;98909.25;4957533;28;20499;-77
2022/02/03 20:23:45;;;;;;;99.50;33.27;;;;;;;1.95;46.53;98900.44;4956956;28;20093;-78
2022/02/03 20:26:13;;;;;;;116.15;38.00;;;;;;;2.46;47.16;98913.72;4974170;28;20038;-81
2022/02/03 20:28:39;;;;;;;111.93;40.10;;;;;;;2.43;47.10;98920.03;4973474;28;20514;-80
2022/02/03 20:31:05;;;;;;;88.43;33.17;;;;;;;2.47;45.97;98923.25;4973547;28;20116;-80
2022/02/03 20:33:31;;;;;;;112.90;34.00;;;;;;;2.37;46.32;98927.56;4973262;28;20050;-81
2022/02/03 20:35:57;;;;;;;101.90;34.63;;;;;;;2.47;46.78;98939.81;4944007;28;20049;-82
2022/02/03 20:38:24;;;;;;;119.27;33.50;;;;;;;2.31;47.01;98928.03;4974688;28;20042;-79
2022/02/03 20:40:50;;;;;;;101.33;32.37;;;;;;;2.48;46.39;98930.97;4942047;28;20375;-81
2022/02/03 20:43:16;;;;;;;118.47;38.13;;;;;;;2.54;45.91;98925.22;4973496;28;20053;-78
2022/02/03 20:45:43;;;;;;;120.23;38.33;;;;;;;2.73;45.21;98925.41;4989346;28;20089;-78
2022/02/03 20:48:09;;;;;;;124.03;40.57;;;;;;;2.64;46.02;98925.31;4973440;28;20132;-78
2022/02/03 20:50:40;;;;;;;133.90;42.67;;;;;;;2.61;46.20;98931.66;4941930;28;20077;-78
2022/02/03 20:53:06;;;;;;;132.05;42.95;;;;;;;2.33;46.67;98929.59;5006263;28;20050;-80
2022/02/03 20:55:32;;;;;;;139.63;43.83;;;;;;;2.66;45.96;98936.53;4974421;28;20061;-79
2022/02/03 20:57:59;;;;;;;117.97;36.67;;;;;;;2.13;46.11;98933.00;4974156;28;20046;-79
2022/02/03 21:00:50;;;;;;;118.27;36.63;;;;;;;1.87;46.72;98912.44;4993716;28;20479;-78
2022/02/03 21:03:20;;;;;;;97.77;31.27;;;;;;;1.83;45.98;98919.69;4977004;28;20156;-78
2022/02/03 21:05:46;;;;;;;93.43;32.10;;;;;;;1.81;46.51;98929.47;4994230;28;20069;-78
2022/02/03 21:08:14;;;;;;;117.90;33.47;;;;;;;2.00;47.19;98931.47;4978896;28;20107;-79
2022/02/03 21:10:40;;;;;;;108.73;33.87;;;;;;;1.81;46.82;98936.50;4978208;28;20120;-78
2022/02/03 21:13:06;;;;;;;110.80;31.87;;;;;;;1.64;47.45;98932.59;4961859;28;20490;-78
2022/02/03 21:15:36;;;;;;;81.90;28.20;;;;;;;1.76;46.63;98934.22;4960762;28;20046;-78
2022/02/03 21:18:06;;;;;;;100.47;31.70;;;;;;;2.18;46.68;98943.94;4976962;28;20046;-78
2022/02/03 21:20:33;;;;;;;101.43;33.17;;;;;;;2.11;46.77;98936.69;4992546;28;20053;-79
2022/02/03 21:22:59;;;;;;;96.23;30.83;;;;;;;2.07;46.13;98930.03;4994268;28;20125;-78
2022/02/03 21:25:33;;;;;;;96.30;30.57;;;;;;;2.41;45.65;98945.53;4944759;28;20093;-79
2022/02/03 21:28:06;;;;;;;101.60;32.17;;;;;;;2.35;46.84;98932.94;5008582;28;20185;-79
2022/02/03 21:30:32;;;;;;;109.20;30.97;;;;;;;1.96;46.25;98911.72;4978669;28;20042;-83
2022/02/03 21:32:58;;;;;;;80.47;28.53;;;;;;;1.86;46.35;98952.66;4978275;28;20542;-81
2022/02/03 21:35:26;;;;;;;98.83;28.80;;;;;;;1.81;46.87;98945.19;4962598;28;20046;-79
2022/02/03 21:37:52;;;;;;;77.20;26.70;;;;;;;1.59;46.45;98924.25;4945400;28;20038;-80
2022/02/03 21:40:20;;;;;;;79.40;26.57;;;;;;;1.65;47.35;98932.47;4976599;28;20415;-81
2022/02/03 21:42:47;;;;;;;89.90;27.93;;;;;;;1.49;47.54;98936.41;4960576;28;20554;-80
2022/02/03 21:45:16;;;;;;;67.63;22.83;;;;;;;1.14;47.61;98935.63;4944372;28;20520;-81
2022/02/03 21:47:42;;;;;;;92.77;28.80;;;;;;;1.16;48.50;98925.88;4961578;28;20108;-81
2022/02/03 21:50:09;;;;;;;68.77;26.23;;;;;;;1.25;48.80;98930.41;4976986;28;20125;-80
2022/02/03 21:52:38;;;;;;;83.67;27.10;;;;;;;1.12;48.43;98929.69;4959709;28;20283;-83
2022/02/03 21:55:07;;;;;;;82.17;28.03;;;;;;;1.59;49.02;98932.09;4976930;28;20038;-82
2022/02/03 21:57:33;;;;;;;78.27;28.37;;;;;;;1.31;48.13;98919.47;4975774;28;20064;-81
2022/02/03 22:00:00;;;;;;;76.40;28.53;;;;;;;1.50;48.09;98931.03;4977057;28;20046;-82
2022/02/03 22:02:26;;;;;;;80.57;25.40;;;;;;;1.58;47.54;98930.44;4944085;28;20047;-77
2022/02/03 22:04:53;;;;;;;73.43;25.20;;;;;;;1.68;47.52;98923.53;4960621;28;20045;-79
2022/02/03 22:07:20;;;;;;;81.40;28.77;;;;;;;1.91;47.33;98927.78;4976523;28;20070;-78
2022/02/03 22:09:46;;;;;;;73.90;27.37;;;;;;;1.74;47.68;98909.97;4973899;28;20053;-79
2022/02/03 22:12:12;;;;;;;74.40;25.53;;;;;;;1.93;46.84;98923.28;4957721;28;20049;-79
2022/02/03 22:14:38;;;;;;;75.90;27.17;;;;;;;1.92;46.80;98918.16;4990182;28;20046;-80
2022/02/03 22:17:05;;;;;;;93.07;31.17;;;;;;;2.28;46.13;98915.19;4941905;28;20144;-80
2022/02/03 22:19:31;;;;;;;107.40;39.43;;;;;;;2.64;45.88;98926.16;4957928;28;20449;-79
2022/02/03 22:22:34;;;;;;;83.97;33.27;;;;;;;2.84;45.07;98924.50;4974357;28;20494;-78
2022/02/03 22:28:52;;;;;;;91.07;32.47;;;;;;;2.85;44.30;98932.25;4960584;28;20057;-79
2022/02/03 22:39:01;;;;;;;96.33;35.10;;;;;;;2.23;46.46;98917.38;4962278;28;20486;-83
2022/02/03 22:44:41;;;;;;;106.67;37.87;;;;;;;2.41;46.08;98915.88;4982679;28;20102;-82
2022/02/03 22:49:36;;;;;;;90.90;29.20;;;;;;;2.53;45.77;98917.50;4975276;28;20061;-83
2022/02/03 22:52:03;;;;;;;83.83;27.67;;;;;;;2.76;46.40;98912.03;4974831;28;20062;-82
2022/02/03 22:54:29;;;;;;;92.70;28.63;;;;;;;2.58;46.15;98918.81;4991296;28;20042;-81
2022/02/03 22:56:55;;;;;;;79.40;26.83;;;;;;;2.71;45.94;98922.06;4959538;28;20053;-83
2022/02/03 23:01:53;;;;;;;77.20;26.80;;;;;;;2.42;46.16;98913.13;4976890;28;20042;-82
2022/02/03 23:04:19;;;;;;;89.60;29.50;;;;;;;2.20;46.12;98889.63;4959398;28;20580;-83
2022/02/03 23:06:47;;;;;;;105.27;31.13;;;;;;;2.54;47.31;98914.75;4959517;28;20137;-84
2022/02/03 23:09:30;;;;;;;97.87;32.00;;;;;;;2.63;45.73;98918.44;4976862;28;20073;-83
2022/02/03 23:12:21;;;;;;;97.57;30.07;;;;;;;2.54;46.05;98911.28;4978342;28;20133;-82
2022/02/03 23:17:54;;;;;;;102.17;33.90;;;;;;;2.50;46.06;98900.25;4961219;28;20050;-83
2022/02/03 23:20:13;;;;;;;103.63;31.47;;;;;;;2.52;46.02;98900.94;4963878;28;20069;-82
2022/02/03 23:22:41;;;;;;;111.63;32.90;;;;;;;2.49;46.10;98922.16;4975373;28;20042;-82
2022/02/03 23:25:12;;;;;;;115.07;34.07;;;;;;;2.81;45.87;98916.91;4959254;28;20046;-81
2022/02/03 23:30:24;;;;;;;116.30;34.93;;;;;;;2.66;45.75;98929.47;4961326;28;20054;-82
2022/02/03 23:32:51;;;;;;;112.40;37.47;;;;;;;2.78;46.03;98927.63;4974977;28;20399;-82
2022/02/03 23:37:49;;;;;;;120.30;37.93;;;;;;;2.90;45.33;98929.25;4975654;28;20050;-81
2022/02/03 23:40:25;;;;;;;115.47;36.77;;;;;;;2.77;45.24;98937.28;4990746;28;20074;-82
2022/02/03 23:44:04;;;;;;;98.13;34.33;;;;;;;2.78;45.62;98938.94;4958425;28;20076;-81
